PWSweather.com
Personal Weather Stations
Station Observations
WESTON01
WestonSuperMareGB BS22 8RT

WestonSuperMareGB BS22 8RT

Lat: 51.351508, Lon: -2.933373

Elevation: 15

Station Type: Fine Offset WH1080

http://www.westonweather.co.uk

High Low Average
Temperature 85.4°F29.7°C 62.2°F16.8°C 71.5°F21.9°C
Dew Point 64.5°F18.1°C 56.6°F13.7°C 60.6°F15.9°C
Winds 9.8 mph 15.8 kmh Calm Calm 4.0 mph SSE6.4 kmh SSE
Wind Gusts 14.6 mph23.5 kmh -- 6.0 mph9.7 kmh
Humidity 93% 44% 71%
Pressure 30.26 in1024.7 mb 30.17 in1021.7 mb -
Precipitation 0.00 in0.0 mm - -
Hour Temp Dew Point Humidity Winds Wind Gusts Pressure Precip Precip Rate Daily Precip Total
12:00 AM 64.5°F18.1°C 61.8°F16.6°C 91% 3.1 mph WNW5.0 kmh WNW 4.2 mph6.8 kmh 30.20 in1022.7 mb 0.00 in0.0 mm 0.00 in0.0 mm 0.00 in0.0 mm
12:05 AM 64.5°F18.1°C 61.8°F16.6°C 91% 3.8 mph WNW6.1 kmh WNW 7.7 mph12.4 kmh 30.20 in1022.7 mb 0.00 in0.0 mm 0.00 in0.0 mm 0.00 in0.0 mm
12:10 AM 64.5°F18.1°C 61.8°F16.6°C 91% 3.8 mph W6.1 kmh W 7.7 mph12.4 kmh 30.20 in1022.7 mb 0.00 in0.0 mm 0.00 in0.0 mm 0.00 in0.0 mm
12:15 AM 64.5°F18.1°C 61.8°F16.6°C 91% 3.6 mph W5.8 kmh W 4.5 mph7.2 kmh 30.17 in1021.7 mb 0.00 in0.0 mm 0.00 in0.0 mm 0.00 in0.0 mm
12:20 AM 64.3°F17.9°C 61.6°F16.4°C 91% 3.1 mph WNW5.0 kmh WNW 4.5 mph7.2 kmh 30.17 in1021.7 mb 0.00 in0.0 mm 0.00 in0.0 mm 0.00 in0.0 mm
12:25 AM 64.3°F17.9°C 61.6°F16.4°C 91% 2.9 mph NW4.7 kmh NW 4.5 mph7.2 kmh 30.17 in1021.7 mb 0.00 in0.0 mm 0.00 in0.0 mm 0.00 in0.0 mm
12:30 AM 64.1°F17.8°C 61.4°F16.3°C 91% 3.9 mph WNW6.3 kmh WNW 6.5 mph10.5 kmh 30.17 in1021.7 mb 0.00 in0.0 mm 0.00 in0.0 mm 0.00 in0.0 mm
12:35 AM 64.0°F17.8°C 61.3°F16.3°C 91% 4.7 mph WNW7.6 kmh WNW 6.5 mph10.5 kmh 30.17 in1021.7 mb 0.00 in0.0 mm 0.00 in0.0 mm 0.00 in0.0 mm
12:40 AM 64.0°F17.8°C 61.3°F16.3°C 91% 4.9 mph WNW7.9 kmh WNW 7.4 mph11.9 kmh 30.17 in1021.7 mb 0.00 in0.0 mm 0.00 in0.0 mm 0.00 in0.0 mm
12:45 AM 64.0°F17.8°C 61.3°F16.3°C 91% 5.5 mph WNW8.9 kmh WNW 8.0 mph12.9 kmh 30.20 in1022.7 mb 0.00 in0.0 mm 0.00 in0.0 mm 0.00 in0.0 mm
12:50 AM 64.0°F17.8°C 61.3°F16.3°C 91% 4.6 mph WNW7.4 kmh WNW 8.0 mph12.9 kmh 30.20 in1022.7 mb 0.00 in0.0 mm 0.00 in0.0 mm 0.00 in0.0 mm
12:55 AM 64.0°F17.8°C 61.3°F16.3°C 91% 4.0 mph NW6.4 kmh NW 7.1 mph11.4 kmh 30.20 in1022.7 mb 0.00 in0.0 mm 0.00 in0.0 mm 0.00 in0.0 mm
01:00 AM 64.0°F17.8°C 61.3°F16.3°C 91% 4.4 mph NW7.1 kmh NW 7.4 mph11.9 kmh 30.17 in1021.7 mb 0.00 in0.0 mm 0.00 in0.0 mm 0.00 in0.0 mm
01:05 AM 64.0°F17.8°C 61.6°F16.4°C 92% 4.1 mph NW6.6 kmh NW 7.4 mph11.9 kmh 30.17 in1021.7 mb 0.00 in0.0 mm 0.00 in0.0 mm 0.00 in0.0 mm
01:10 AM 63.8°F17.7°C 61.4°F16.3°C 92% 3.4 mph NW5.5 kmh NW 5.7 mph9.2 kmh 30.17 in1021.7 mb 0.00 in0.0 mm 0.00 in0.0 mm 0.00 in0.0 mm
01:15 AM 63.6°F17.6°C 61.2°F16.2°C 92% 2.6 mph W4.2 kmh W 5.7 mph9.2 kmh 30.17 in1021.7 mb 0.00 in0.0 mm 0.00 in0.0 mm 0.00 in0.0 mm
01:20 AM 63.6°F17.6°C 61.2°F16.2°C 92% 1.0 mph W1.6 kmh W 3.3 mph5.3 kmh 30.17 in1021.7 mb 0.00 in0.0 mm 0.00 in0.0 mm 0.00 in0.0 mm
01:25 AM 63.6°F17.6°C 61.2°F16.2°C 92% 0.7 mph W1.1 kmh W 3.3 mph5.3 kmh 30.17 in1021.7 mb 0.00 in0.0 mm 0.00 in0.0 mm 0.00 in0.0 mm
01:30 AM 63.6°F17.6°C 61.2°F16.2°C 92% 0.5 mph W0.8 kmh W 3.3 mph5.3 kmh 30.17 in1021.7 mb 0.00 in0.0 mm 0.00 in0.0 mm 0.00 in0.0 mm
01:35 AM 63.8°F17.7°C 61.4°F16.3°C 92% Calm Calm -- 30.17 in1021.7 mb 0.00 in0.0 mm 0.00 in0.0 mm 0.00 in0.0 mm
01:40 AM 63.8°F17.7°C 61.4°F16.3°C 92% 0.4 mph SW0.6 kmh SW 3.3 mph5.3 kmh 30.17 in1021.7 mb 0.00 in0.0 mm 0.00 in0.0 mm 0.00 in0.0 mm
01:45 AM 64.0°F17.8°C 61.6°F16.4°C 92% 1.0 mph WSW1.6 kmh WSW 3.3 mph5.3 kmh 30.17 in1021.7 mb 0.00 in0.0 mm 0.00 in0.0 mm 0.00 in0.0 mm
01:50 AM 64.0°F17.8°C 61.6°F16.4°C 92% 1.2 mph SW1.9 kmh SW 3.3 mph5.3 kmh 30.17 in1021.7 mb 0.00 in0.0 mm 0.00 in0.0 mm 0.00 in0.0 mm
01:55 AM 64.1°F17.8°C 61.8°F16.6°C 92% 1.9 mph WSW3.1 kmh WSW 3.6 mph5.8 kmh 30.17 in1021.7 mb 0.00 in0.0 mm 0.00 in0.0 mm 0.00 in0.0 mm
02:00 AM 64.1°F17.8°C 61.8°F16.6°C 92% 2.1 mph WSW3.4 kmh WSW 3.6 mph5.8 kmh 30.17 in1021.7 mb 0.00 in0.0 mm 0.00 in0.0 mm 0.00 in0.0 mm
02:05 AM 64.1°F17.8°C 61.8°F16.6°C 92% 1.2 mph W1.9 kmh W 3.3 mph5.3 kmh 30.17 in1021.7 mb 0.00 in0.0 mm 0.00 in0.0 mm 0.00 in0.0 mm
02:10 AM 64.1°F17.8°C 61.8°F16.6°C 92% 0.8 mph NW1.3 kmh NW 1.8 mph2.9 kmh 30.17 in1021.7 mb 0.00 in0.0 mm 0.00 in0.0 mm 0.00 in0.0 mm
02:15 AM 64.1°F17.8°C 61.8°F16.6°C 92% 2.0 mph NW3.2 kmh NW 4.2 mph6.8 kmh 30.17 in1021.7 mb 0.00 in0.0 mm 0.00 in0.0 mm 0.00 in0.0 mm
02:20 AM 64.1°F17.8°C 61.8°F16.6°C 92% 2.3 mph NW3.7 kmh NW 4.2 mph6.8 kmh 30.17 in1021.7 mb 0.00 in0.0 mm 0.00 in0.0 mm 0.00 in0.0 mm
02:25 AM 64.1°F17.8°C 61.8°F16.6°C 92% 1.3 mph NW2.1 kmh NW 3.9 mph6.3 kmh 30.17 in1021.7 mb 0.00 in0.0 mm 0.00 in0.0 mm 0.00 in0.0 mm
02:30 AM 64.0°F17.8°C 61.6°F16.4°C 92% 0.9 mph WNW1.4 kmh WNW 3.9 mph6.3 kmh 30.17 in1021.7 mb 0.00 in0.0 mm 0.00 in0.0 mm 0.00 in0.0 mm
02:35 AM 64.0°F17.8°C 61.6°F16.4°C 92% 1.2 mph SW1.9 kmh SW 3.6 mph5.8 kmh 30.17 in1021.7 mb 0.00 in0.0 mm 0.00 in0.0 mm 0.00 in0.0 mm
02:40 AM 64.0°F17.8°C 61.6°F16.4°C 92% 1.1 mph SW1.8 kmh SW 2.7 mph4.3 kmh 30.17 in1021.7 mb 0.00 in0.0 mm 0.00 in0.0 mm 0.00 in0.0 mm
02:45 AM 64.0°F17.8°C 61.6°F16.4°C 92% 0.3 mph SSW0.5 kmh SSW 1.8 mph2.9 kmh 30.17 in1021.7 mb 0.00 in0.0 mm 0.00 in0.0 mm 0.00 in0.0 mm
02:50 AM 63.8°F17.7°C 61.4°F16.3°C 92% 0.1 mph S0.2 kmh S 1.8 mph2.9 kmh 30.17 in1021.7 mb 0.00 in0.0 mm 0.00 in0.0 mm 0.00 in0.0 mm
02:55 AM 63.8°F17.7°C 61.4°F16.3°C 92% 0.2 mph WSW0.3 kmh WSW 1.5 mph2.4 kmh 30.17 in1021.7 mb 0.00 in0.0 mm 0.00 in0.0 mm 0.00 in0.0 mm
03:00 AM 63.8°F17.7°C 61.4°F16.3°C 92% 0.2 mph WSW0.3 kmh WSW 1.5 mph2.4 kmh 30.17 in1021.7 mb 0.00 in0.0 mm 0.00 in0.0 mm 0.00 in0.0 mm
03:05 AM 63.6°F17.6°C 61.2°F16.2°C 92% Calm Calm -- 30.17 in1021.7 mb 0.00 in0.0 mm 0.00 in0.0 mm 0.00 in0.0 mm
03:10 AM 63.6°F17.6°C 61.2°F16.2°C 92% Calm Calm -- 30.17 in1021.7 mb 0.00 in0.0 mm 0.00 in0.0 mm 0.00 in0.0 mm
03:15 AM 63.2°F17.3°C 60.9°F16.1°C 92% 0.6 mph N1.0 kmh N 2.1 mph3.4 kmh 30.17 in1021.7 mb 0.00 in0.0 mm 0.00 in0.0 mm 0.00 in0.0 mm
03:20 AM 63.2°F17.3°C 60.9°F16.1°C 92% 1.4 mph N2.3 kmh N 3.0 mph4.8 kmh 30.17 in1021.7 mb 0.00 in0.0 mm 0.00 in0.0 mm 0.00 in0.0 mm
03:25 AM 63.2°F17.3°C 60.9°F16.1°C 92% 1.6 mph NE2.6 kmh NE 3.0 mph4.8 kmh 30.17 in1021.7 mb 0.00 in0.0 mm 0.00 in0.0 mm 0.00 in0.0 mm
03:30 AM 63.0°F17.2°C 61.0°F16.1°C 93% 0.9 mph E1.4 kmh E 3.0 mph4.8 kmh 30.17 in1021.7 mb 0.00 in0.0 mm 0.00 in0.0 mm 0.00 in0.0 mm
03:35 AM 62.9°F17.2°C 60.8°F16.0°C 93% 0.1 mph E0.2 kmh E 1.8 mph2.9 kmh 30.17 in1021.7 mb 0.00 in0.0 mm 0.00 in0.0 mm 0.00 in0.0 mm
03:40 AM 62.9°F17.2°C 60.8°F16.0°C 93% 0.9 mph N1.4 kmh N 4.2 mph6.8 kmh 30.17 in1021.7 mb 0.00 in0.0 mm 0.00 in0.0 mm 0.00 in0.0 mm
03:45 AM 62.9°F17.2°C 60.8°F16.0°C 93% 0.9 mph N1.4 kmh N 4.2 mph6.8 kmh 30.17 in1021.7 mb 0.00 in0.0 mm 0.00 in0.0 mm 0.00 in0.0 mm
03:50 AM 63.0°F17.2°C 61.0°F16.1°C 93% 0.5 mph NE0.8 kmh NE 3.0 mph4.8 kmh 30.17 in1021.7 mb 0.00 in0.0 mm 0.00 in0.0 mm 0.00 in0.0 mm
03:55 AM 63.0°F17.2°C 61.0°F16.1°C 93% 0.7 mph NE1.1 kmh NE 3.0 mph4.8 kmh 30.17 in1021.7 mb 0.00 in0.0 mm 0.00 in0.0 mm 0.00 in0.0 mm
04:00 AM 63.2°F17.3°C 61.2°F16.2°C 93% 0.2 mph NE0.3 kmh NE 2.7 mph4.3 kmh 30.17 in1021.7 mb 0.00 in0.0 mm 0.00 in0.0 mm 0.00 in0.0 mm
04:05 AM 63.2°F17.3°C 61.2°F16.2°C 93% Calm Calm -- 30.17 in1021.7 mb 0.00 in0.0 mm 0.00 in0.0 mm 0.00 in0.0 mm
04:10 AM 63.2°F17.3°C 61.2°F16.2°C 93% 0.1 mph NE0.2 kmh NE 1.5 mph2.4 kmh 30.17 in1021.7 mb 0.00 in0.0 mm 0.00 in0.0 mm 0.00 in0.0 mm
04:15 AM 63.2°F17.3°C 61.2°F16.2°C 93% 0.1 mph NE0.2 kmh NE 1.5 mph2.4 kmh 30.17 in1021.7 mb 0.00 in0.0 mm 0.00 in0.0 mm 0.00 in0.0 mm
04:20 AM 63.2°F17.3°C 61.2°F16.2°C 93% Calm Calm -- 30.17 in1021.7 mb 0.00 in0.0 mm 0.00 in0.0 mm 0.00 in0.0 mm
04:25 AM 63.4°F17.4°C 61.4°F16.3°C 93% Calm Calm -- 30.17 in1021.7 mb 0.00 in0.0 mm 0.00 in0.0 mm 0.00 in0.0 mm
04:35 AM 63.4°F17.4°C 61.4°F16.3°C 93% 0.1 mph NE0.2 kmh NE 1.0 mph1.6 kmh 30.17 in1021.7 mb 0.00 in0.0 mm 0.00 in0.0 mm 0.00 in0.0 mm
04:40 AM 63.4°F17.4°C 61.4°F16.3°C 93% 0.1 mph NE0.2 kmh NE 1.0 mph1.6 kmh 30.17 in1021.7 mb 0.00 in0.0 mm 0.00 in0.0 mm 0.00 in0.0 mm
04:45 AM 63.4°F17.4°C 61.4°F16.3°C 93% 0.4 mph NE0.6 kmh NE 1.8 mph2.9 kmh 30.20 in1022.7 mb 0.00 in0.0 mm 0.00 in0.0 mm 0.00 in0.0 mm
04:50 AM 63.6°F17.6°C 61.5°F16.4°C 93% 0.7 mph NE1.1 kmh NE 3.9 mph6.3 kmh 30.20 in1022.7 mb 0.00 in0.0 mm 0.00 in0.0 mm 0.00 in0.0 mm
04:55 AM 63.6°F17.6°C 61.5°F16.4°C 93% 1.2 mph N1.9 kmh N 5.4 mph8.7 kmh 30.20 in1022.7 mb 0.00 in0.0 mm 0.00 in0.0 mm 0.00 in0.0 mm
05:00 AM 63.6°F17.6°C 61.5°F16.4°C 93% 2.0 mph N3.2 kmh N 5.4 mph8.7 kmh 30.20 in1022.7 mb 0.00 in0.0 mm 0.00 in0.0 mm 0.00 in0.0 mm
05:05 AM 63.6°F17.6°C 61.5°F16.4°C 93% 2.5 mph NNE4.0 kmh NNE 4.2 mph6.8 kmh 30.20 in1022.7 mb 0.00 in0.0 mm 0.00 in0.0 mm 0.00 in0.0 mm
05:10 AM 63.6°F17.6°C 61.5°F16.4°C 93% 3.4 mph NNE5.5 kmh NNE 5.7 mph9.2 kmh 30.20 in1022.7 mb 0.00 in0.0 mm 0.00 in0.0 mm 0.00 in0.0 mm
05:15 AM 63.8°F17.7°C 61.4°F16.3°C 92% 3.5 mph NE5.6 kmh NE 5.7 mph9.2 kmh 30.20 in1022.7 mb 0.00 in0.0 mm 0.00 in0.0 mm 0.00 in0.0 mm
05:20 AM 63.8°F17.7°C 61.4°F16.3°C 92% 2.7 mph NE4.3 kmh NE 5.1 mph8.2 kmh 30.20 in1022.7 mb 0.00 in0.0 mm 0.00 in0.0 mm 0.00 in0.0 mm
05:25 AM 64.0°F17.8°C 61.6°F16.4°C 92% 1.8 mph NE2.9 kmh NE 3.6 mph5.8 kmh 30.20 in1022.7 mb 0.00 in0.0 mm 0.00 in0.0 mm 0.00 in0.0 mm
05:30 AM 64.0°F17.8°C 61.6°F16.4°C 92% 2.1 mph NNE3.4 kmh NNE 4.5 mph7.2 kmh 30.20 in1022.7 mb 0.00 in0.0 mm 0.00 in0.0 mm 0.00 in0.0 mm
05:35 AM 64.0°F17.8°C 61.6°F16.4°C 92% 2.2 mph NE3.5 kmh NE 5.4 mph8.7 kmh 30.20 in1022.7 mb 0.00 in0.0 mm 0.00 in0.0 mm 0.00 in0.0 mm
05:40 AM 64.1°F17.8°C 61.8°F16.6°C 92% 2.6 mph ENE4.2 kmh ENE 5.4 mph8.7 kmh 30.20 in1022.7 mb 0.00 in0.0 mm 0.00 in0.0 mm 0.00 in0.0 mm
05:45 AM 64.3°F17.9°C 61.9°F16.6°C 92% 3.6 mph ENE5.8 kmh ENE 5.4 mph8.7 kmh 30.20 in1022.7 mb 0.00 in0.0 mm 0.00 in0.0 mm 0.00 in0.0 mm
05:50 AM 64.3°F17.9°C 61.9°F16.6°C 92% 2.9 mph NE4.7 kmh NE 4.5 mph7.2 kmh 30.20 in1022.7 mb 0.00 in0.0 mm 0.00 in0.0 mm 0.00 in0.0 mm
05:55 AM 64.5°F18.1°C 62.1°F16.7°C 92% 1.7 mph NE2.7 kmh NE 3.9 mph6.3 kmh 30.20 in1022.7 mb 0.00 in0.0 mm 0.00 in0.0 mm 0.00 in0.0 mm
06:00 AM 64.5°F18.1°C 62.1°F16.7°C 92% 1.4 mph NE2.3 kmh NE 3.6 mph5.8 kmh 30.20 in1022.7 mb 0.00 in0.0 mm 0.00 in0.0 mm 0.00 in0.0 mm
06:05 AM 65.2°F18.4°C 62.8°F17.1°C 92% 1.7 mph NNE2.7 kmh NNE 3.6 mph5.8 kmh 30.20 in1022.7 mb 0.00 in0.0 mm 0.00 in0.0 mm 0.00 in0.0 mm
06:10 AM 65.4°F18.6°C 63.0°F17.2°C 92% 1.5 mph NNE2.4 kmh NNE 3.6 mph5.8 kmh 30.20 in1022.7 mb 0.00 in0.0 mm 0.00 in0.0 mm 0.00 in0.0 mm
06:15 AM 65.6°F18.7°C 62.9°F17.2°C 91% 1.1 mph NE1.8 kmh NE 3.6 mph5.8 kmh 30.20 in1022.7 mb 0.00 in0.0 mm 0.00 in0.0 mm 0.00 in0.0 mm
06:20 AM 65.8°F18.8°C 63.0°F17.2°C 91% 1.6 mph NNE2.6 kmh NNE 5.1 mph8.2 kmh 30.20 in1022.7 mb 0.00 in0.0 mm 0.00 in0.0 mm 0.00 in0.0 mm
06:25 AM 65.9°F18.8°C 63.2°F17.3°C 91% 2.0 mph NNE3.2 kmh NNE 5.1 mph8.2 kmh 30.20 in1022.7 mb 0.00 in0.0 mm 0.00 in0.0 mm 0.00 in0.0 mm
06:30 AM 66.1°F18.9°C 63.1°F17.3°C 90% 3.0 mph NE4.8 kmh NE 6.2 mph10.0 kmh 30.23 in1023.7 mb 0.00 in0.0 mm 0.00 in0.0 mm 0.00 in0.0 mm
06:35 AM 66.1°F18.9°C 63.1°F17.3°C 90% 3.5 mph NE5.6 kmh NE 6.2 mph10.0 kmh 30.23 in1023.7 mb 0.00 in0.0 mm 0.00 in0.0 mm 0.00 in0.0 mm
06:40 AM 66.3°F19.1°C 63.3°F17.4°C 90% 3.5 mph NE5.6 kmh NE 5.1 mph8.2 kmh 30.23 in1023.7 mb 0.00 in0.0 mm 0.00 in0.0 mm 0.00 in0.0 mm
06:45 AM 66.5°F19.2°C 63.1°F17.3°C 89% 3.1 mph ENE5.0 kmh ENE 5.1 mph8.2 kmh 30.20 in1022.7 mb 0.00 in0.0 mm 0.00 in0.0 mm 0.00 in0.0 mm
06:50 AM 66.7°F19.3°C 63.3°F17.4°C 89% 3.2 mph E5.1 kmh E 5.1 mph8.2 kmh 30.20 in1022.7 mb 0.00 in0.0 mm 0.00 in0.0 mm 0.00 in0.0 mm
06:55 AM 66.8°F19.3°C 63.2°F17.3°C 88% 4.1 mph ENE6.6 kmh ENE 7.4 mph11.9 kmh 30.20 in1022.7 mb 0.00 in0.0 mm 0.00 in0.0 mm 0.00 in0.0 mm
07:00 AM 67.0°F19.4°C 63.3°F17.4°C 88% 4.1 mph NE6.6 kmh NE 7.4 mph11.9 kmh 30.23 in1023.7 mb 0.00 in0.0 mm 0.00 in0.0 mm 0.00 in0.0 mm
07:05 AM 67.0°F19.4°C 63.3°F17.4°C 88% 3.9 mph NE6.3 kmh NE 7.4 mph11.9 kmh 30.23 in1023.7 mb 0.00 in0.0 mm 0.00 in0.0 mm 0.00 in0.0 mm
07:10 AM 67.4°F19.7°C 63.4°F17.4°C 87% 4.0 mph ENE6.4 kmh ENE 6.2 mph10.0 kmh 30.23 in1023.7 mb 0.00 in0.0 mm 0.00 in0.0 mm 0.00 in0.0 mm
07:15 AM 67.9°F19.9°C 63.9°F17.7°C 87% 3.9 mph E6.3 kmh E 6.2 mph10.0 kmh 30.23 in1023.7 mb 0.00 in0.0 mm 0.00 in0.0 mm 0.00 in0.0 mm
07:20 AM 68.3°F20.2°C 63.9°F17.7°C 86% 3.3 mph E5.3 kmh E 5.7 mph9.2 kmh 30.23 in1023.7 mb 0.00 in0.0 mm 0.00 in0.0 mm 0.00 in0.0 mm
07:25 AM 68.6°F20.3°C 63.6°F17.6°C 84% 4.4 mph E7.1 kmh E 7.7 mph12.4 kmh 30.23 in1023.7 mb 0.00 in0.0 mm 0.00 in0.0 mm 0.00 in0.0 mm
07:30 AM 68.8°F20.4°C 63.8°F17.7°C 84% 5.3 mph E8.5 kmh E 8.3 mph13.4 kmh 30.23 in1023.7 mb 0.00 in0.0 mm 0.00 in0.0 mm 0.00 in0.0 mm
07:35 AM 69.0°F20.6°C 63.6°F17.6°C 83% 4.4 mph ENE7.1 kmh ENE 8.3 mph13.4 kmh 30.23 in1023.7 mb 0.00 in0.0 mm 0.00 in0.0 mm 0.00 in0.0 mm
07:40 AM 69.3°F20.7°C 64.0°F17.8°C 83% 3.7 mph E6.0 kmh E 6.5 mph10.5 kmh 30.23 in1023.7 mb 0.00 in0.0 mm 0.00 in0.0 mm 0.00 in0.0 mm
07:45 AM 70.1°F21.2°C 64.0°F17.8°C 81% 5.2 mph E8.4 kmh E 8.3 mph13.4 kmh 30.23 in1023.7 mb 0.00 in0.0 mm 0.00 in0.0 mm 0.00 in0.0 mm
07:50 AM 70.4°F21.3°C 64.0°F17.8°C 80% 5.7 mph ENE9.2 kmh ENE 8.3 mph13.4 kmh 30.23 in1023.7 mb 0.00 in0.0 mm 0.00 in0.0 mm 0.00 in0.0 mm
07:55 AM 71.0°F21.7°C 64.5°F18.1°C 80% 5.9 mph NE9.5 kmh NE 8.3 mph13.4 kmh 30.23 in1023.7 mb 0.00 in0.0 mm 0.00 in0.0 mm 0.00 in0.0 mm
08:00 AM 71.0°F21.7°C 64.1°F17.8°C 79% 5.1 mph NE8.2 kmh NE 8.3 mph13.4 kmh 30.23 in1023.7 mb 0.00 in0.0 mm 0.00 in0.0 mm 0.00 in0.0 mm
08:05 AM 71.3°F21.8°C 64.1°F17.8°C 78% 5.3 mph NE8.5 kmh NE 8.6 mph13.8 kmh 30.23 in1023.7 mb 0.00 in0.0 mm 0.00 in0.0 mm 0.00 in0.0 mm
08:10 AM 71.3°F21.8°C 63.7°F17.6°C 77% 5.7 mph ENE9.2 kmh ENE 8.6 mph13.8 kmh 30.23 in1023.7 mb 0.00 in0.0 mm 0.00 in0.0 mm 0.00 in0.0 mm
08:15 AM 71.3°F21.8°C 63.4°F17.4°C 76% 6.1 mph NE9.8 kmh NE 8.0 mph12.9 kmh 30.23 in1023.7 mb 0.00 in0.0 mm 0.00 in0.0 mm 0.00 in0.0 mm
08:20 AM 71.2°F21.8°C 63.2°F17.3°C 76% 6.9 mph NE11.1 kmh NE 10.4 mph16.7 kmh 30.23 in1023.7 mb 0.00 in0.0 mm 0.00 in0.0 mm 0.00 in0.0 mm
08:25 AM 71.0°F21.7°C 62.6°F17.0°C 75% 6.9 mph ENE11.1 kmh ENE 10.4 mph16.7 kmh 30.23 in1023.7 mb 0.00 in0.0 mm 0.00 in0.0 mm 0.00 in0.0 mm
08:30 AM 70.6°F21.4°C 62.3°F16.8°C 75% 6.1 mph NE9.8 kmh NE 10.4 mph16.7 kmh 30.23 in1023.7 mb 0.00 in0.0 mm 0.00 in0.0 mm 0.00 in0.0 mm
08:35 AM 70.6°F21.4°C 62.3°F16.8°C 75% 5.5 mph NE8.9 kmh NE 8.6 mph13.8 kmh 30.23 in1023.7 mb 0.00 in0.0 mm 0.00 in0.0 mm 0.00 in0.0 mm
08:40 AM 70.6°F21.4°C 62.3°F16.8°C 75% 5.0 mph NE8.0 kmh NE 7.7 mph12.4 kmh 30.23 in1023.7 mb 0.00 in0.0 mm 0.00 in0.0 mm 0.00 in0.0 mm
08:45 AM 70.6°F21.4°C 61.9°F16.6°C 74% 5.0 mph NNE8.0 kmh NNE 8.6 mph13.8 kmh 30.23 in1023.7 mb 0.00 in0.0 mm 0.00 in0.0 mm 0.00 in0.0 mm
08:50 AM 70.4°F21.3°C 61.7°F16.5°C 74% 6.1 mph N9.8 kmh N 10.4 mph16.7 kmh 30.23 in1023.7 mb 0.00 in0.0 mm 0.00 in0.0 mm 0.00 in0.0 mm
08:55 AM 69.9°F21.1°C 61.2°F16.2°C 74% 6.8 mph N10.9 kmh N 10.4 mph16.7 kmh 30.23 in1023.7 mb 0.00 in0.0 mm 0.00 in0.0 mm 0.00 in0.0 mm
09:00 AM 69.7°F20.9°C 60.7°F15.9°C 73% 6.2 mph N10.0 kmh N 9.5 mph15.3 kmh 30.26 in1024.7 mb 0.00 in0.0 mm 0.00 in0.0 mm 0.00 in0.0 mm
09:05 AM 69.7°F20.9°C 61.0°F16.1°C 74% 5.6 mph NNE9.0 kmh NNE 9.5 mph15.3 kmh 30.26 in1024.7 mb 0.00 in0.0 mm 0.00 in0.0 mm 0.00 in0.0 mm
09:10 AM 69.7°F20.9°C 60.7°F15.9°C 73% 5.3 mph NNE8.5 kmh NNE 8.3 mph13.4 kmh 30.26 in1024.7 mb 0.00 in0.0 mm 0.00 in0.0 mm 0.00 in0.0 mm
09:15 AM 69.7°F20.9°C 60.7°F15.9°C 73% 5.2 mph NNE8.4 kmh NNE 8.3 mph13.4 kmh 30.26 in1024.7 mb 0.00 in0.0 mm 0.00 in0.0 mm 0.00 in0.0 mm
09:20 AM 69.9°F21.1°C 60.8°F16.0°C 73% 5.4 mph NNE8.7 kmh NNE 7.1 mph11.4 kmh 30.26 in1024.7 mb 0.00 in0.0 mm 0.00 in0.0 mm 0.00 in0.0 mm
09:25 AM 69.9°F21.1°C 60.8°F16.0°C 73% 5.8 mph NE9.3 kmh NE 9.5 mph15.3 kmh 30.26 in1024.7 mb 0.00 in0.0 mm 0.00 in0.0 mm 0.00 in0.0 mm
09:30 AM 70.8°F21.6°C 61.3°F16.3°C 72% 4.8 mph NE7.7 kmh NE 9.5 mph15.3 kmh 30.26 in1024.7 mb 0.00 in0.0 mm 0.00 in0.0 mm 0.00 in0.0 mm
09:35 AM 71.5°F21.9°C 62.0°F16.7°C 72% 4.4 mph NE7.1 kmh NE 6.5 mph10.5 kmh 30.26 in1024.7 mb 0.00 in0.0 mm 0.00 in0.0 mm 0.00 in0.0 mm
09:40 AM 72.1°F22.3°C 62.1°F16.7°C 71% 5.0 mph N8.0 kmh N 6.5 mph10.5 kmh 30.26 in1024.7 mb 0.00 in0.0 mm 0.00 in0.0 mm 0.00 in0.0 mm
09:45 AM 72.9°F22.7°C 62.6°F17.0°C 70% 5.5 mph N8.9 kmh N 9.2 mph14.8 kmh 30.26 in1024.7 mb 0.00 in0.0 mm 0.00 in0.0 mm 0.00 in0.0 mm
09:50 AM 73.8°F23.2°C 63.0°F17.2°C 69% 5.0 mph NE8.0 kmh NE 9.2 mph14.8 kmh 30.26 in1024.7 mb 0.00 in0.0 mm 0.00 in0.0 mm 0.00 in0.0 mm
09:55 AM 74.8°F23.8°C 63.5°F17.5°C 68% 4.8 mph NNE7.7 kmh NNE 8.3 mph13.4 kmh 30.26 in1024.7 mb 0.00 in0.0 mm 0.00 in0.0 mm 0.00 in0.0 mm
10:00 AM 75.7°F24.3°C 63.9°F17.7°C 67% 4.6 mph NNE7.4 kmh NNE 8.3 mph13.4 kmh 30.26 in1024.7 mb 0.00 in0.0 mm 0.00 in0.0 mm 0.00 in0.0 mm
10:05 AM 75.7°F24.3°C 63.9°F17.7°C 67% 4.9 mph N7.9 kmh N 8.3 mph13.4 kmh 30.26 in1024.7 mb 0.00 in0.0 mm 0.00 in0.0 mm 0.00 in0.0 mm
10:10 AM 75.7°F24.3°C 63.9°F17.7°C 67% 5.6 mph N9.0 kmh N 8.6 mph13.8 kmh 30.26 in1024.7 mb 0.00 in0.0 mm 0.00 in0.0 mm 0.00 in0.0 mm
10:15 AM 76.9°F24.9°C 63.8°F17.7°C 64% 5.4 mph NNE8.7 kmh NNE 8.6 mph13.8 kmh 30.26 in1024.7 mb 0.00 in0.0 mm 0.00 in0.0 mm 0.00 in0.0 mm
10:20 AM 77.3°F25.2°C 64.1°F17.8°C 64% 4.7 mph N7.6 kmh N 6.5 mph10.5 kmh 30.26 in1024.7 mb 0.00 in0.0 mm 0.00 in0.0 mm 0.00 in0.0 mm
10:25 AM 77.6°F25.3°C 63.6°F17.6°C 62% 4.9 mph NNE7.9 kmh NNE 7.4 mph11.9 kmh 30.26 in1024.7 mb 0.00 in0.0 mm 0.00 in0.0 mm 0.00 in0.0 mm
10:30 AM 77.6°F25.3°C 63.6°F17.6°C 62% 4.8 mph NNE7.7 kmh NNE 7.7 mph12.4 kmh 30.26 in1024.7 mb 0.00 in0.0 mm 0.00 in0.0 mm 0.00 in0.0 mm
10:35 AM 77.6°F25.3°C 63.6°F17.6°C 62% 4.6 mph NNE7.4 kmh NNE 8.6 mph13.8 kmh 30.26 in1024.7 mb 0.00 in0.0 mm 0.00 in0.0 mm 0.00 in0.0 mm
10:40 AM 77.6°F25.3°C 63.1°F17.3°C 61% 5.3 mph NE8.5 kmh NE 8.6 mph13.8 kmh 30.26 in1024.7 mb 0.00 in0.0 mm 0.00 in0.0 mm 0.00 in0.0 mm
10:45 AM 78.0°F25.6°C 63.4°F17.4°C 61% 5.2 mph NE8.4 kmh NE 8.0 mph12.9 kmh 30.26 in1024.7 mb 0.00 in0.0 mm 0.00 in0.0 mm 0.00 in0.0 mm
10:50 AM 78.2°F25.7°C 63.6°F17.6°C 61% 5.8 mph N9.3 kmh N 10.1 mph16.3 kmh 30.26 in1024.7 mb 0.00 in0.0 mm 0.00 in0.0 mm 0.00 in0.0 mm
10:55 AM 78.5°F25.8°C 63.5°F17.5°C 60% 6.3 mph NNE10.1 kmh NNE 10.7 mph17.2 kmh 30.26 in1024.7 mb 0.00 in0.0 mm 0.00 in0.0 mm 0.00 in0.0 mm
11:00 AM 78.7°F25.9°C 63.2°F17.3°C 59% 6.4 mph N10.3 kmh N 10.7 mph17.2 kmh 30.26 in1024.7 mb 0.00 in0.0 mm 0.00 in0.0 mm 0.00 in0.0 mm
11:05 AM 78.7°F25.9°C 63.2°F17.3°C 59% 7.3 mph N11.7 kmh N 13.7 mph22.0 kmh 30.26 in1024.7 mb 0.00 in0.0 mm 0.00 in0.0 mm 0.00 in0.0 mm
11:10 AM 78.7°F25.9°C 62.7°F17.1°C 58% 7.3 mph N11.7 kmh N 13.7 mph22.0 kmh 30.26 in1024.7 mb 0.00 in0.0 mm 0.00 in0.0 mm 0.00 in0.0 mm
11:15 AM 78.3°F25.7°C 62.4°F16.9°C 58% 6.1 mph N9.8 kmh N 10.7 mph17.2 kmh 30.26 in1024.7 mb 0.00 in0.0 mm 0.00 in0.0 mm 0.00 in0.0 mm
11:20 AM 78.5°F25.8°C 62.5°F16.9°C 58% 5.0 mph N8.0 kmh N 7.4 mph11.9 kmh 30.26 in1024.7 mb 0.00 in0.0 mm 0.00 in0.0 mm 0.00 in0.0 mm
11:25 AM 79.3°F26.3°C 62.7°F17.1°C 57% 5.9 mph N9.5 kmh N 9.8 mph15.8 kmh 30.26 in1024.7 mb 0.00 in0.0 mm 0.00 in0.0 mm 0.00 in0.0 mm
11:30 AM 79.1°F26.2°C 62.5°F16.9°C 57% 5.2 mph N8.4 kmh N 9.8 mph15.8 kmh 30.26 in1024.7 mb 0.00 in0.0 mm 0.00 in0.0 mm 0.00 in0.0 mm
11:35 AM 79.3°F26.3°C 62.2°F16.8°C 56% 4.7 mph NE7.6 kmh NE 7.7 mph12.4 kmh 30.26 in1024.7 mb 0.00 in0.0 mm 0.00 in0.0 mm 0.00 in0.0 mm
11:40 AM 79.4°F26.3°C 61.9°F16.6°C 55% 5.3 mph NE8.5 kmh NE 7.7 mph12.4 kmh 30.26 in1024.7 mb 0.00 in0.0 mm 0.00 in0.0 mm 0.00 in0.0 mm
11:45 AM 80.0°F26.7°C 62.4°F16.9°C 55% 5.1 mph NE8.2 kmh NE 7.7 mph12.4 kmh 30.26 in1024.7 mb 0.00 in0.0 mm 0.00 in0.0 mm 0.00 in0.0 mm
11:50 AM 80.9°F27.2°C 62.7°F17.1°C 54% 4.4 mph NE7.1 kmh NE 6.5 mph10.5 kmh 30.26 in1024.7 mb 0.00 in0.0 mm 0.00 in0.0 mm 0.00 in0.0 mm
11:55 AM 81.6°F27.6°C 62.8°F17.1°C 53% 5.1 mph N8.2 kmh N 7.7 mph12.4 kmh 30.26 in1024.7 mb 0.00 in0.0 mm 0.00 in0.0 mm 0.00 in0.0 mm
12:00 PM 81.6°F27.6°C 62.8°F17.1°C 53% 6.1 mph NNE9.8 kmh NNE 7.7 mph12.4 kmh 30.23 in1023.7 mb 0.00 in0.0 mm 0.00 in0.0 mm 0.00 in0.0 mm
12:05 PM 81.6°F27.6°C 61.7°F16.5°C 51% 6.6 mph N10.6 kmh N 9.5 mph15.3 kmh 30.23 in1023.7 mb 0.00 in0.0 mm 0.00 in0.0 mm 0.00 in0.0 mm
12:10 PM 81.6°F27.6°C 61.7°F16.5°C 51% 6.1 mph N9.8 kmh N 9.5 mph15.3 kmh 30.23 in1023.7 mb 0.00 in0.0 mm 0.00 in0.0 mm 0.00 in0.0 mm
12:15 PM 81.9°F27.7°C 62.0°F16.7°C 51% 5.5 mph NNW8.9 kmh NNW 7.4 mph11.9 kmh 30.23 in1023.7 mb 0.00 in0.0 mm 0.00 in0.0 mm 0.00 in0.0 mm
12:20 PM 82.3°F27.9°C 61.8°F16.6°C 50% 6.3 mph N10.1 kmh N 9.5 mph15.3 kmh 30.23 in1023.7 mb 0.00 in0.0 mm 0.00 in0.0 mm 0.00 in0.0 mm
12:25 PM 82.7°F28.2°C 62.1°F16.7°C 50% 6.2 mph N10.0 kmh N 9.5 mph15.3 kmh 30.23 in1023.7 mb 0.00 in0.0 mm 0.00 in0.0 mm 0.00 in0.0 mm
12:30 PM 82.8°F28.2°C 62.3°F16.8°C 50% 6.0 mph NNW9.7 kmh NNW 7.4 mph11.9 kmh 30.23 in1023.7 mb 0.00 in0.0 mm 0.00 in0.0 mm 0.00 in0.0 mm
12:35 PM 83.2°F28.4°C 60.9°F16.1°C 47% 5.1 mph NNE8.2 kmh NNE 7.4 mph11.9 kmh 30.23 in1023.7 mb 0.00 in0.0 mm 0.00 in0.0 mm 0.00 in0.0 mm
12:40 PM 83.8°F28.8°C 61.4°F16.3°C 47% 4.8 mph NE7.7 kmh NE 7.1 mph11.4 kmh 30.23 in1023.7 mb 0.00 in0.0 mm 0.00 in0.0 mm 0.00 in0.0 mm
12:45 PM 83.9°F28.8°C 61.5°F16.4°C 47% 5.6 mph N9.0 kmh N 8.6 mph13.8 kmh 30.23 in1023.7 mb 0.00 in0.0 mm 0.00 in0.0 mm 0.00 in0.0 mm
12:50 PM 84.1°F28.9°C 61.7°F16.5°C 47% 6.1 mph N9.8 kmh N 8.6 mph13.8 kmh 30.23 in1023.7 mb 0.00 in0.0 mm 0.00 in0.0 mm 0.00 in0.0 mm
12:55 PM 84.1°F28.9°C 61.1°F16.2°C 46% 5.6 mph NNE9.0 kmh NNE 8.6 mph13.8 kmh 30.23 in1023.7 mb 0.00 in0.0 mm 0.00 in0.0 mm 0.00 in0.0 mm
01:00 PM 84.1°F28.9°C 61.1°F16.2°C 46% 4.8 mph NE7.7 kmh NE 7.7 mph12.4 kmh 30.23 in1023.7 mb 0.00 in0.0 mm 0.00 in0.0 mm 0.00 in0.0 mm
01:05 PM 84.7°F29.3°C 61.6°F16.4°C 46% 5.5 mph NE8.9 kmh NE 8.6 mph13.8 kmh 30.23 in1023.7 mb 0.00 in0.0 mm 0.00 in0.0 mm 0.00 in0.0 mm
01:10 PM 85.0°F29.4°C 61.3°F16.3°C 45% 5.3 mph NNE8.5 kmh NNE 8.6 mph13.8 kmh 30.23 in1023.7 mb 0.00 in0.0 mm 0.00 in0.0 mm 0.00 in0.0 mm
01:15 PM 85.0°F29.4°C 61.9°F16.6°C 46% 6.4 mph NNW10.3 kmh NNW 14.6 mph23.5 kmh 30.23 in1023.7 mb 0.00 in0.0 mm 0.00 in0.0 mm 0.00 in0.0 mm
01:20 PM 84.5°F29.2°C 62.0°F16.7°C 47% 7.7 mph NW12.4 kmh NW 14.6 mph23.5 kmh 30.23 in1023.7 mb 0.00 in0.0 mm 0.00 in0.0 mm 0.00 in0.0 mm
01:25 PM 84.5°F29.2°C 62.0°F16.7°C 47% 7.0 mph NNW11.3 kmh NNW 10.1 mph16.3 kmh 30.23 in1023.7 mb 0.00 in0.0 mm 0.00 in0.0 mm 0.00 in0.0 mm
01:30 PM 83.8°F28.8°C 61.4°F16.3°C 47% 6.8 mph NW10.9 kmh NW 8.6 mph13.8 kmh 30.23 in1023.7 mb 0.00 in0.0 mm 0.00 in0.0 mm 0.00 in0.0 mm
01:35 PM 83.8°F28.8°C 61.4°F16.3°C 47% 6.7 mph NW10.8 kmh NW 8.6 mph13.8 kmh 30.23 in1023.7 mb 0.00 in0.0 mm 0.00 in0.0 mm 0.00 in0.0 mm
01:40 PM 83.6°F28.7°C 61.2°F16.2°C 47% 5.4 mph NW8.7 kmh NW 7.7 mph12.4 kmh 30.23 in1023.7 mb 0.00 in0.0 mm 0.00 in0.0 mm 0.00 in0.0 mm
01:45 PM 83.6°F28.7°C 61.8°F16.6°C 48% 5.8 mph NW9.3 kmh NW 8.6 mph13.8 kmh 30.23 in1023.7 mb 0.00 in0.0 mm 0.00 in0.0 mm 0.00 in0.0 mm
01:50 PM 83.8°F28.8°C 61.4°F16.3°C 47% 5.9 mph NW9.5 kmh NW 8.6 mph13.8 kmh 30.23 in1023.7 mb 0.00 in0.0 mm 0.00 in0.0 mm 0.00 in0.0 mm
01:55 PM 84.1°F28.9°C 61.7°F16.5°C 47% 5.8 mph NNW9.3 kmh NNW 8.3 mph13.4 kmh 30.23 in1023.7 mb 0.00 in0.0 mm 0.00 in0.0 mm 0.00 in0.0 mm
02:00 PM 84.3°F29.1°C 61.3°F16.3°C 46% 5.1 mph NNW8.2 kmh NNW 8.3 mph13.4 kmh 30.23 in1023.7 mb 0.00 in0.0 mm 0.00 in0.0 mm 0.00 in0.0 mm
02:05 PM 84.7°F29.3°C 61.6°F16.4°C 46% 3.1 mph NW5.0 kmh NW 5.1 mph8.2 kmh 30.23 in1023.7 mb 0.00 in0.0 mm 0.00 in0.0 mm 0.00 in0.0 mm
02:10 PM 84.7°F29.3°C 61.6°F16.4°C 46% 3.5 mph NNW5.6 kmh NNW 7.7 mph12.4 kmh 30.23 in1023.7 mb 0.00 in0.0 mm 0.00 in0.0 mm 0.00 in0.0 mm
02:15 PM 85.2°F29.6°C 61.5°F16.4°C 45% 3.5 mph NNW5.6 kmh NNW 7.7 mph12.4 kmh 30.23 in1023.7 mb 0.00 in0.0 mm 0.00 in0.0 mm 0.00 in0.0 mm
02:20 PM 85.4°F29.7°C 62.2°F16.8°C 46% 2.6 mph WNW4.2 kmh WNW 4.5 mph7.2 kmh 30.23 in1023.7 mb 0.00 in0.0 mm 0.00 in0.0 mm 0.00 in0.0 mm
02:25 PM 85.4°F29.7°C 62.2°F16.8°C 46% 4.1 mph NW6.6 kmh NW 6.5 mph10.5 kmh 30.23 in1023.7 mb 0.00 in0.0 mm 0.00 in0.0 mm 0.00 in0.0 mm
02:30 PM 85.0°F29.4°C 61.3°F16.3°C 45% 4.6 mph NNW7.4 kmh NNW 6.5 mph10.5 kmh 30.23 in1023.7 mb 0.00 in0.0 mm 0.00 in0.0 mm 0.00 in0.0 mm
02:35 PM 85.0°F29.4°C 61.3°F16.3°C 45% 5.1 mph NW8.2 kmh NW 8.6 mph13.8 kmh 30.23 in1023.7 mb 0.00 in0.0 mm 0.00 in0.0 mm 0.00 in0.0 mm
02:40 PM 84.5°F29.2°C 60.8°F16.0°C 45% 5.0 mph WNW8.0 kmh WNW 8.6 mph13.8 kmh 30.23 in1023.7 mb 0.00 in0.0 mm 0.00 in0.0 mm 0.00 in0.0 mm
02:45 PM 84.5°F29.2°C 61.4°F16.3°C 46% 5.1 mph WNW8.2 kmh WNW 7.4 mph11.9 kmh 30.23 in1023.7 mb 0.00 in0.0 mm 0.00 in0.0 mm 0.00 in0.0 mm
02:50 PM 84.5°F29.2°C 61.4°F16.3°C 46% 4.9 mph NW7.9 kmh NW 7.4 mph11.9 kmh 30.23 in1023.7 mb 0.00 in0.0 mm 0.00 in0.0 mm 0.00 in0.0 mm
02:55 PM 84.5°F29.2°C 60.8°F16.0°C 45% 4.5 mph NW7.2 kmh NW 6.2 mph10.0 kmh 30.23 in1023.7 mb 0.00 in0.0 mm 0.00 in0.0 mm 0.00 in0.0 mm
03:00 PM 84.3°F29.1°C 60.6°F15.9°C 45% 5.2 mph NW8.4 kmh NW 8.9 mph14.3 kmh 30.23 in1023.7 mb 0.00 in0.0 mm 0.00 in0.0 mm 0.00 in0.0 mm
03:05 PM 84.3°F29.1°C 60.6°F15.9°C 45% 5.5 mph NW8.9 kmh NW 8.9 mph14.3 kmh 30.23 in1023.7 mb 0.00 in0.0 mm 0.00 in0.0 mm 0.00 in0.0 mm
03:10 PM 84.3°F29.1°C 60.6°F15.9°C 45% 6.7 mph NW10.8 kmh NW 10.4 mph16.7 kmh 30.23 in1023.7 mb 0.00 in0.0 mm 0.00 in0.0 mm 0.00 in0.0 mm
03:15 PM 84.3°F29.1°C 60.6°F15.9°C 45% 6.5 mph NW10.5 kmh NW 10.4 mph16.7 kmh 30.23 in1023.7 mb 0.00 in0.0 mm 0.00 in0.0 mm 0.00 in0.0 mm
03:20 PM 84.5°F29.2°C 60.8°F16.0°C 45% 5.4 mph NW8.7 kmh NW 8.0 mph12.9 kmh 30.23 in1023.7 mb 0.00 in0.0 mm 0.00 in0.0 mm 0.00 in0.0 mm
03:25 PM 84.5°F29.2°C 60.8°F16.0°C 45% 6.0 mph NW9.7 kmh NW 8.6 mph13.8 kmh 30.23 in1023.7 mb 0.00 in0.0 mm 0.00 in0.0 mm 0.00 in0.0 mm
03:30 PM 84.1°F28.9°C 59.8°F15.4°C 44% 6.1 mph NW9.8 kmh NW 8.6 mph13.8 kmh 30.23 in1023.7 mb 0.00 in0.0 mm 0.00 in0.0 mm 0.00 in0.0 mm
03:35 PM 84.1°F28.9°C 59.8°F15.4°C 44% 6.6 mph NW10.6 kmh NW 7.7 mph12.4 kmh 30.23 in1023.7 mb 0.00 in0.0 mm 0.00 in0.0 mm 0.00 in0.0 mm
03:40 PM 84.1°F28.9°C 59.8°F15.4°C 44% 6.8 mph NW10.9 kmh NW 9.8 mph15.8 kmh 30.23 in1023.7 mb 0.00 in0.0 mm 0.00 in0.0 mm 0.00 in0.0 mm
03:45 PM 83.4°F28.6°C 59.2°F15.1°C 44% 6.9 mph NW11.1 kmh NW 9.8 mph15.8 kmh 30.23 in1023.7 mb 0.00 in0.0 mm 0.00 in0.0 mm 0.00 in0.0 mm
03:50 PM 83.2°F28.4°C 59.0°F15.0°C 44% 6.7 mph WNW10.8 kmh WNW 8.6 mph13.8 kmh 30.23 in1023.7 mb 0.00 in0.0 mm 0.00 in0.0 mm 0.00 in0.0 mm
03:55 PM 82.8°F28.2°C 59.3°F15.2°C 45% 6.0 mph NW9.7 kmh NW 8.6 mph13.8 kmh 30.23 in1023.7 mb 0.00 in0.0 mm 0.00 in0.0 mm 0.00 in0.0 mm
04:00 PM 83.0°F28.3°C 58.9°F14.9°C 44% 5.4 mph NW8.7 kmh NW 8.0 mph12.9 kmh 30.23 in1023.7 mb 0.00 in0.0 mm 0.00 in0.0 mm 0.00 in0.0 mm
04:05 PM 83.0°F28.3°C 59.5°F15.3°C 45% 5.2 mph NW8.4 kmh NW 7.1 mph11.4 kmh 30.23 in1023.7 mb 0.00 in0.0 mm 0.00 in0.0 mm 0.00 in0.0 mm
04:10 PM 82.8°F28.2°C 59.3°F15.2°C 45% 6.5 mph WNW10.5 kmh WNW 8.9 mph14.3 kmh 30.23 in1023.7 mb 0.00 in0.0 mm 0.00 in0.0 mm 0.00 in0.0 mm
04:15 PM 82.8°F28.2°C 59.3°F15.2°C 45% 6.8 mph WNW10.9 kmh WNW 8.9 mph14.3 kmh 30.23 in1023.7 mb 0.00 in0.0 mm 0.00 in0.0 mm 0.00 in0.0 mm
04:20 PM 83.2°F28.4°C 59.7°F15.4°C 45% 6.0 mph WNW9.7 kmh WNW 8.9 mph14.3 kmh 30.23 in1023.7 mb 0.00 in0.0 mm 0.00 in0.0 mm 0.00 in0.0 mm
04:25 PM 83.2°F28.4°C 59.0°F15.0°C 44% 6.1 mph NW9.8 kmh NW 8.9 mph14.3 kmh 30.23 in1023.7 mb 0.00 in0.0 mm 0.00 in0.0 mm 0.00 in0.0 mm
04:30 PM 83.2°F28.4°C 59.0°F15.0°C 44% 6.2 mph NW10.0 kmh NW 8.6 mph13.8 kmh 30.23 in1023.7 mb 0.00 in0.0 mm 0.00 in0.0 mm 0.00 in0.0 mm
04:35 PM 83.2°F28.4°C 59.0°F15.0°C 44% 5.6 mph NW9.0 kmh NW 8.3 mph13.4 kmh 30.23 in1023.7 mb 0.00 in0.0 mm 0.00 in0.0 mm 0.00 in0.0 mm
04:40 PM 82.8°F28.2°C 59.3°F15.2°C 45% 6.0 mph NW9.7 kmh NW 8.3 mph13.4 kmh 30.23 in1023.7 mb 0.00 in0.0 mm 0.00 in0.0 mm 0.00 in0.0 mm
04:45 PM 83.0°F28.3°C 58.9°F14.9°C 44% 6.0 mph WNW9.7 kmh WNW 8.3 mph13.4 kmh 30.23 in1023.7 mb 0.00 in0.0 mm 0.00 in0.0 mm 0.00 in0.0 mm
04:50 PM 82.3°F27.9°C 58.8°F14.9°C 45% 6.3 mph WNW10.1 kmh WNW 8.6 mph13.8 kmh 30.23 in1023.7 mb 0.00 in0.0 mm 0.00 in0.0 mm 0.00 in0.0 mm
04:55 PM 81.9°F27.7°C 58.5°F14.7°C 45% 8.0 mph W12.9 kmh W 10.1 mph16.3 kmh 30.23 in1023.7 mb 0.00 in0.0 mm 0.00 in0.0 mm 0.00 in0.0 mm
05:00 PM 81.1°F27.3°C 58.3°F14.6°C 46% 7.8 mph WSW12.6 kmh WSW 10.1 mph16.3 kmh 30.23 in1023.7 mb 0.00 in0.0 mm 0.00 in0.0 mm 0.00 in0.0 mm
05:05 PM 79.8°F26.6°C 57.2°F14.0°C 46% 9.8 mph WSW15.8 kmh WSW 14.6 mph23.5 kmh 30.23 in1023.7 mb 0.00 in0.0 mm 0.00 in0.0 mm 0.00 in0.0 mm
05:10 PM 79.4°F26.3°C 57.4°F14.1°C 47% 9.0 mph W14.5 kmh W 14.6 mph23.5 kmh 30.23 in1023.7 mb 0.00 in0.0 mm 0.00 in0.0 mm 0.00 in0.0 mm
05:15 PM 78.5°F25.8°C 56.6°F13.7°C 47% 7.8 mph W12.6 kmh W 10.4 mph16.7 kmh 30.23 in1023.7 mb 0.00 in0.0 mm 0.00 in0.0 mm 0.00 in0.0 mm
05:20 PM 78.0°F25.6°C 56.7°F13.7°C 48% 8.3 mph W13.4 kmh W 10.4 mph16.7 kmh 30.23 in1023.7 mb 0.00 in0.0 mm 0.00 in0.0 mm 0.00 in0.0 mm
05:25 PM 78.0°F25.6°C 56.7°F13.7°C 48% 8.0 mph WSW12.9 kmh WSW 10.4 mph16.7 kmh 30.23 in1023.7 mb 0.00 in0.0 mm 0.00 in0.0 mm 0.00 in0.0 mm
05:30 PM 77.4°F25.2°C 57.3°F14.1°C 50% 8.0 mph WSW12.9 kmh WSW 10.4 mph16.7 kmh 30.23 in1023.7 mb 0.00 in0.0 mm 0.00 in0.0 mm 0.00 in0.0 mm
05:35 PM 77.4°F25.2°C 57.3°F14.1°C 50% 8.0 mph WSW12.9 kmh WSW 10.1 mph16.3 kmh 30.23 in1023.7 mb 0.00 in0.0 mm 0.00 in0.0 mm 0.00 in0.0 mm
05:40 PM 76.9°F24.9°C 56.9°F13.8°C 50% 9.2 mph WSW14.8 kmh WSW 14.0 mph22.5 kmh 30.23 in1023.7 mb 0.00 in0.0 mm 0.00 in0.0 mm 0.00 in0.0 mm
05:45 PM 76.4°F24.7°C 56.9°F13.8°C 51% 8.8 mph WSW14.2 kmh WSW 14.0 mph22.5 kmh 30.23 in1023.7 mb 0.00 in0.0 mm 0.00 in0.0 mm 0.00 in0.0 mm
05:50 PM 76.4°F24.7°C 56.9°F13.8°C 51% 7.9 mph WSW12.7 kmh WSW 12.2 mph19.6 kmh 30.23 in1023.7 mb 0.00 in0.0 mm 0.00 in0.0 mm 0.00 in0.0 mm
05:55 PM 76.0°F24.4°C 56.6°F13.7°C 51% 8.1 mph WSW13.0 kmh WSW 10.4 mph16.7 kmh 30.23 in1023.7 mb 0.00 in0.0 mm 0.00 in0.0 mm 0.00 in0.0 mm
06:00 PM 75.5°F24.2°C 56.6°F13.7°C 52% 9.1 mph W14.6 kmh W 11.6 mph18.7 kmh 30.23 in1023.7 mb 0.00 in0.0 mm 0.00 in0.0 mm 0.00 in0.0 mm
06:05 PM 75.1°F23.9°C 56.8°F13.8°C 53% 9.3 mph W15.0 kmh W 11.9 mph19.2 kmh 30.23 in1023.7 mb 0.00 in0.0 mm 0.00 in0.0 mm 0.00 in0.0 mm
06:10 PM 74.8°F23.8°C 57.0°F13.9°C 54% 8.4 mph W13.5 kmh W 11.9 mph19.2 kmh 30.23 in1023.7 mb 0.00 in0.0 mm 0.00 in0.0 mm 0.00 in0.0 mm
06:15 PM 74.4°F23.6°C 57.2°F14.0°C 55% 7.3 mph W11.7 kmh W 10.7 mph17.2 kmh 30.23 in1023.7 mb 0.00 in0.0 mm 0.00 in0.0 mm 0.00 in0.0 mm
06:20 PM 74.4°F23.6°C 57.2°F14.0°C 55% 7.1 mph W11.4 kmh W 10.7 mph17.2 kmh 30.23 in1023.7 mb 0.00 in0.0 mm 0.00 in0.0 mm 0.00 in0.0 mm
06:25 PM 74.2°F23.4°C 57.5°F14.2°C 56% 7.2 mph WNW11.6 kmh WNW 10.7 mph17.2 kmh 30.23 in1023.7 mb 0.00 in0.0 mm 0.00 in0.0 mm 0.00 in0.0 mm
06:30 PM 74.2°F23.4°C 57.5°F14.2°C 56% 6.0 mph WNW9.7 kmh WNW 10.7 mph17.2 kmh 30.23 in1023.7 mb 0.00 in0.0 mm 0.00 in0.0 mm 0.00 in0.0 mm
06:35 PM 74.0°F23.3°C 57.3°F14.1°C 56% 5.1 mph W8.2 kmh W 9.8 mph15.8 kmh 30.23 in1023.7 mb 0.00 in0.0 mm 0.00 in0.0 mm 0.00 in0.0 mm
06:40 PM 73.5°F23.1°C 57.3°F14.1°C 57% 6.0 mph W9.7 kmh W 9.8 mph15.8 kmh 30.23 in1023.7 mb 0.00 in0.0 mm 0.00 in0.0 mm 0.00 in0.0 mm
06:45 PM 73.3°F22.9°C 57.6°F14.2°C 58% 6.7 mph W10.8 kmh W 9.8 mph15.8 kmh 30.23 in1023.7 mb 0.00 in0.0 mm 0.00 in0.0 mm 0.00 in0.0 mm
06:50 PM 72.6°F22.6°C 57.4°F14.1°C 59% 5.0 mph W8.0 kmh W 8.0 mph12.9 kmh 30.23 in1023.7 mb 0.00 in0.0 mm 0.00 in0.0 mm 0.00 in0.0 mm
06:55 PM 72.2°F22.3°C 57.6°F14.2°C 60% 3.7 mph WNW6.0 kmh WNW 5.4 mph8.7 kmh 30.23 in1023.7 mb 0.00 in0.0 mm 0.00 in0.0 mm 0.00 in0.0 mm
07:00 PM 71.9°F22.2°C 57.7°F14.3°C 61% 5.0 mph W8.0 kmh W 8.6 mph13.8 kmh 30.23 in1023.7 mb 0.00 in0.0 mm 0.00 in0.0 mm 0.00 in0.0 mm
07:05 PM 71.5°F21.9°C 57.4°F14.1°C 61% 6.5 mph W10.5 kmh W 10.7 mph17.2 kmh 30.23 in1023.7 mb 0.00 in0.0 mm 0.00 in0.0 mm 0.00 in0.0 mm
07:10 PM 71.3°F21.8°C 57.6°F14.2°C 62% 6.0 mph W9.7 kmh W 10.7 mph17.2 kmh 30.23 in1023.7 mb 0.00 in0.0 mm 0.00 in0.0 mm 0.00 in0.0 mm
07:15 PM 70.8°F21.6°C 57.6°F14.2°C 63% 5.3 mph W8.5 kmh W 9.5 mph15.3 kmh 30.23 in1023.7 mb 0.00 in0.0 mm 0.00 in0.0 mm 0.00 in0.0 mm
07:20 PM 70.8°F21.6°C 57.6°F14.2°C 63% 5.2 mph WNW8.4 kmh WNW 9.5 mph15.3 kmh 30.23 in1023.7 mb 0.00 in0.0 mm 0.00 in0.0 mm 0.00 in0.0 mm
07:25 PM 70.3°F21.3°C 57.9°F14.4°C 65% 4.9 mph W7.9 kmh W 7.1 mph11.4 kmh 30.23 in1023.7 mb 0.00 in0.0 mm 0.00 in0.0 mm 0.00 in0.0 mm
07:30 PM 70.1°F21.2°C 57.8°F14.3°C 65% 5.1 mph W8.2 kmh W 8.3 mph13.4 kmh 30.23 in1023.7 mb 0.00 in0.0 mm 0.00 in0.0 mm 0.00 in0.0 mm
07:35 PM 69.9°F21.1°C 58.0°F14.4°C 66% 5.4 mph W8.7 kmh W 8.3 mph13.4 kmh 30.23 in1023.7 mb 0.00 in0.0 mm 0.00 in0.0 mm 0.00 in0.0 mm
07:40 PM 69.7°F20.9°C 58.3°F14.6°C 67% 4.4 mph W7.1 kmh W 8.3 mph13.4 kmh 30.23 in1023.7 mb 0.00 in0.0 mm 0.00 in0.0 mm 0.00 in0.0 mm
07:45 PM 69.3°F20.7°C 57.9°F14.4°C 67% 4.1 mph W6.6 kmh W 7.7 mph12.4 kmh 30.23 in1023.7 mb 0.00 in0.0 mm 0.00 in0.0 mm 0.00 in0.0 mm
07:50 PM 69.0°F20.6°C 58.0°F14.4°C 68% 3.6 mph W5.8 kmh W 7.7 mph12.4 kmh 30.23 in1023.7 mb 0.00 in0.0 mm 0.00 in0.0 mm 0.00 in0.0 mm
07:55 PM 68.6°F20.3°C 58.0°F14.4°C 69% 3.4 mph W5.5 kmh W 6.5 mph10.5 kmh 30.23 in1023.7 mb 0.00 in0.0 mm 0.00 in0.0 mm 0.00 in0.0 mm
08:00 PM 68.6°F20.3°C 58.0°F14.4°C 69% 3.7 mph WSW6.0 kmh WSW 6.5 mph10.5 kmh 30.23 in1023.7 mb 0.00 in0.0 mm 0.00 in0.0 mm 0.00 in0.0 mm
08:05 PM 68.4°F20.2°C 58.3°F14.6°C 70% 2.8 mph WSW4.5 kmh WSW 4.2 mph6.8 kmh 30.23 in1023.7 mb 0.00 in0.0 mm 0.00 in0.0 mm 0.00 in0.0 mm
08:10 PM 68.1°F20.1°C 57.9°F14.4°C 70% 1.3 mph WSW2.1 kmh WSW 3.3 mph5.3 kmh 30.23 in1023.7 mb 0.00 in0.0 mm 0.00 in0.0 mm 0.00 in0.0 mm
08:15 PM 67.9°F19.9°C 58.2°F14.6°C 71% 0.9 mph SW1.4 kmh SW 2.1 mph3.4 kmh 30.23 in1023.7 mb 0.00 in0.0 mm 0.00 in0.0 mm 0.00 in0.0 mm
08:20 PM 67.7°F19.8°C 58.0°F14.4°C 71% 1.2 mph SW1.9 kmh SW 2.1 mph3.4 kmh 30.23 in1023.7 mb 0.00 in0.0 mm 0.00 in0.0 mm 0.00 in0.0 mm
08:25 PM 67.6°F19.8°C 58.2°F14.6°C 72% 1.7 mph SSW2.7 kmh SSW 3.3 mph5.3 kmh 30.23 in1023.7 mb 0.00 in0.0 mm 0.00 in0.0 mm 0.00 in0.0 mm
08:30 PM 67.6°F19.8°C 58.2°F14.6°C 72% 2.8 mph SSW4.5 kmh SSW 4.2 mph6.8 kmh 30.23 in1023.7 mb 0.00 in0.0 mm 0.00 in0.0 mm 0.00 in0.0 mm
08:35 PM 67.4°F19.7°C 58.4°F14.7°C 73% 2.6 mph SSW4.2 kmh SSW 4.2 mph6.8 kmh 30.23 in1023.7 mb 0.00 in0.0 mm 0.00 in0.0 mm 0.00 in0.0 mm
08:40 PM 67.4°F19.7°C 58.4°F14.7°C 73% 1.1 mph SSW1.8 kmh SSW 3.3 mph5.3 kmh 30.23 in1023.7 mb 0.00 in0.0 mm 0.00 in0.0 mm 0.00 in0.0 mm
08:45 PM 67.2°F19.6°C 58.6°F14.8°C 74% 0.3 mph WSW0.5 kmh WSW 1.2 mph1.9 kmh 30.23 in1023.7 mb 0.00 in0.0 mm 0.00 in0.0 mm 0.00 in0.0 mm
08:50 PM 67.0°F19.4°C 58.4°F14.7°C 74% 0.4 mph WSW0.6 kmh WSW 1.2 mph1.9 kmh 30.23 in1023.7 mb 0.00 in0.0 mm 0.00 in0.0 mm 0.00 in0.0 mm
08:55 PM 66.7°F19.3°C 58.5°F14.7°C 75% 0.2 mph W0.3 kmh W 1.2 mph1.9 kmh 30.23 in1023.7 mb 0.00 in0.0 mm 0.00 in0.0 mm 0.00 in0.0 mm
09:00 PM 66.5°F19.2°C 58.3°F14.6°C 75% 0.1 mph W0.2 kmh W 1.2 mph1.9 kmh 30.23 in1023.7 mb 0.00 in0.0 mm 0.00 in0.0 mm 0.00 in0.0 mm
09:05 PM 66.3°F19.1°C 58.5°F14.7°C 76% 0.1 mph SE0.2 kmh SE 1.2 mph1.9 kmh 30.23 in1023.7 mb 0.00 in0.0 mm 0.00 in0.0 mm 0.00 in0.0 mm
09:10 PM 66.1°F18.9°C 58.3°F14.6°C 76% 0.3 mph S0.5 kmh S 1.2 mph1.9 kmh 30.23 in1023.7 mb 0.00 in0.0 mm 0.00 in0.0 mm 0.00 in0.0 mm
09:15 PM 65.9°F18.8°C 58.5°F14.7°C 77% 0.4 mph SW0.6 kmh SW 1.5 mph2.4 kmh 30.23 in1023.7 mb 0.00 in0.0 mm 0.00 in0.0 mm 0.00 in0.0 mm
09:20 PM 65.9°F18.8°C 58.9°F14.9°C 78% 0.2 mph WSW0.3 kmh WSW 1.5 mph2.4 kmh 30.23 in1023.7 mb 0.00 in0.0 mm 0.00 in0.0 mm 0.00 in0.0 mm
09:25 PM 65.8°F18.8°C 58.7°F14.8°C 78% Calm Calm -- 30.23 in1023.7 mb 0.00 in0.0 mm 0.00 in0.0 mm 0.00 in0.0 mm
09:30 PM 65.6°F18.7°C 58.5°F14.7°C 78% Calm Calm -- 30.23 in1023.7 mb 0.00 in0.0 mm 0.00 in0.0 mm 0.00 in0.0 mm
09:35 PM 65.6°F18.7°C 58.9°F14.9°C 79% 0.6 mph S1.0 kmh S 2.7 mph4.3 kmh 30.23 in1023.7 mb 0.00 in0.0 mm 0.00 in0.0 mm 0.00 in0.0 mm
09:40 PM 65.2°F18.4°C 58.5°F14.7°C 79% 0.6 mph S1.0 kmh S 2.7 mph4.3 kmh 30.23 in1023.7 mb 0.00 in0.0 mm 0.00 in0.0 mm 0.00 in0.0 mm
09:45 PM 65.2°F18.4°C 58.5°F14.7°C 79% Calm Calm -- 30.23 in1023.7 mb 0.00 in0.0 mm 0.00 in0.0 mm 0.00 in0.0 mm
09:50 PM 65.0°F18.3°C 58.7°F14.8°C 80% 0.5 mph E0.8 kmh E 4.8 mph7.7 kmh 30.23 in1023.7 mb 0.00 in0.0 mm 0.00 in0.0 mm 0.00 in0.0 mm
09:55 PM 65.0°F18.3°C 58.7°F14.8°C 80% 0.9 mph E1.4 kmh E 4.8 mph7.7 kmh 30.23 in1023.7 mb 0.00 in0.0 mm 0.00 in0.0 mm 0.00 in0.0 mm
10:00 PM 64.8°F18.2°C 58.9°F14.9°C 81% 0.8 mph E1.3 kmh E 4.8 mph7.7 kmh 30.23 in1023.7 mb 0.00 in0.0 mm 0.00 in0.0 mm 0.00 in0.0 mm
10:05 PM 64.7°F18.2°C 58.7°F14.8°C 81% Calm Calm -- 30.23 in1023.7 mb 0.00 in0.0 mm 0.00 in0.0 mm 0.00 in0.0 mm
10:10 PM 64.5°F18.1°C 58.5°F14.7°C 81% Calm Calm -- 30.23 in1023.7 mb 0.00 in0.0 mm 0.00 in0.0 mm 0.00 in0.0 mm
10:15 PM 64.3°F17.9°C 58.4°F14.7°C 81% Calm Calm -- 30.23 in1023.7 mb 0.00 in0.0 mm 0.00 in0.0 mm 0.00 in0.0 mm
10:20 PM 64.1°F17.8°C 58.5°F14.7°C 82% Calm Calm -- 30.23 in1023.7 mb 0.00 in0.0 mm 0.00 in0.0 mm 0.00 in0.0 mm
10:25 PM 64.0°F17.8°C 58.3°F14.6°C 82% Calm Calm -- 30.23 in1023.7 mb 0.00 in0.0 mm 0.00 in0.0 mm 0.00 in0.0 mm
10:30 PM 64.0°F17.8°C 58.3°F14.6°C 82% Calm Calm -- 30.23 in1023.7 mb 0.00 in0.0 mm 0.00 in0.0 mm 0.00 in0.0 mm
10:35 PM 63.6°F17.6°C 58.0°F14.4°C 82% Calm Calm -- 30.23 in1023.7 mb 0.00 in0.0 mm 0.00 in0.0 mm 0.00 in0.0 mm
10:40 PM 63.6°F17.6°C 58.0°F14.4°C 82% Calm Calm -- 30.23 in1023.7 mb 0.00 in0.0 mm 0.00 in0.0 mm 0.00 in0.0 mm
10:45 PM 63.4°F17.4°C 58.2°F14.6°C 83% Calm Calm -- 30.23 in1023.7 mb 0.00 in0.0 mm 0.00 in0.0 mm 0.00 in0.0 mm
10:50 PM 63.2°F17.3°C 58.0°F14.4°C 83% Calm Calm -- 30.23 in1023.7 mb 0.00 in0.0 mm 0.00 in0.0 mm 0.00 in0.0 mm
10:55 PM 63.0°F17.2°C 57.8°F14.3°C 83% Calm Calm -- 30.23 in1023.7 mb 0.00 in0.0 mm 0.00 in0.0 mm 0.00 in0.0 mm
11:00 PM 63.0°F17.2°C 57.8°F14.3°C 83% Calm Calm -- 30.23 in1023.7 mb 0.00 in0.0 mm 0.00 in0.0 mm 0.00 in0.0 mm
11:05 PM 62.9°F17.2°C 58.0°F14.4°C 84% Calm Calm -- 30.23 in1023.7 mb 0.00 in0.0 mm 0.00 in0.0 mm 0.00 in0.0 mm
11:10 PM 62.7°F17.1°C 57.8°F14.3°C 84% Calm Calm -- 30.23 in1023.7 mb 0.00 in0.0 mm 0.00 in0.0 mm 0.00 in0.0 mm
11:15 PM 62.7°F17.1°C 57.8°F14.3°C 84% Calm Calm -- 30.23 in1023.7 mb 0.00 in0.0 mm 0.00 in0.0 mm 0.00 in0.0 mm
11:20 PM 62.7°F17.1°C 57.8°F14.3°C 84% Calm Calm -- 30.23 in1023.7 mb 0.00 in0.0 mm 0.00 in0.0 mm 0.00 in0.0 mm
11:25 PM 62.5°F16.9°C 57.9°F14.4°C 85% Calm Calm -- 30.23 in1023.7 mb 0.00 in0.0 mm 0.00 in0.0 mm 0.00 in0.0 mm
11:30 PM 62.5°F16.9°C 57.9°F14.4°C 85% Calm Calm -- 30.23 in1023.7 mb 0.00 in0.0 mm 0.00 in0.0 mm 0.00 in0.0 mm
11:35 PM 62.3°F16.8°C 57.8°F14.3°C 85% Calm Calm -- 30.23 in1023.7 mb 0.00 in0.0 mm 0.00 in0.0 mm 0.00 in0.0 mm
11:40 PM 62.3°F16.8°C 57.8°F14.3°C 85% Calm Calm -- 30.23 in1023.7 mb 0.00 in0.0 mm 0.00 in0.0 mm 0.00 in0.0 mm
11:45 PM 62.2°F16.8°C 57.9°F14.4°C 86% Calm Calm -- 30.23 in1023.7 mb 0.00 in0.0 mm 0.00 in0.0 mm 0.00 in0.0 mm
11:50 PM 62.2°F16.8°C 57.9°F14.4°C 86% 0.9 mph E1.4 kmh E 3.3 mph5.3 kmh 30.23 in1023.7 mb 0.00 in0.0 mm 0.00 in0.0 mm 0.00 in0.0 mm
11:55 PM 62.2°F16.8°C 57.9°F14.4°C 86% 1.6 mph E2.6 kmh E 3.3 mph5.3 kmh 30.23 in1023.7 mb 0.00 in0.0 mm 0.00 in0.0 mm 0.00 in0.0 mm